sensor_id;sensor_type;location;lat;lon;timestamp;temperature;humidity
28247;DHT22;66191;53.178;22.058;2023-05-07T00:01:02;8.90;58.70
28247;DHT22;66191;53.178;22.058;2023-05-07T00:03:33;8.90;58.90
28247;DHT22;66191;53.178;22.058;2023-05-07T00:06:06;8.90;58.90
28247;DHT22;66191;53.178;22.058;2023-05-07T00:08:38;8.90;59.00
28247;DHT22;66191;53.178;22.058;2023-05-07T00:11:10;9.00;59.20
28247;DHT22;66191;53.178;22.058;2023-05-07T00:13:41;8.90;59.00
28247;DHT22;66191;53.178;22.058;2023-05-07T00:16:15;8.90;59.00
28247;DHT22;66191;53.178;22.058;2023-05-07T00:18:46;8.90;59.30
28247;DHT22;66191;53.178;22.058;2023-05-07T00:21:17;8.90;59.50
28247;DHT22;66191;53.178;22.058;2023-05-07T00:23:49;8.90;59.50
28247;DHT22;66191;53.178;22.058;2023-05-07T00:26:21;8.90;59.60
28247;DHT22;66191;53.178;22.058;2023-05-07T00:28:52;8.90;59.80
28247;DHT22;66191;53.178;22.058;2023-05-07T00:31:26;8.90;60.00
28247;DHT22;66191;53.178;22.058;2023-05-07T00:33:57;8.90;60.00
28247;DHT22;66191;53.178;22.058;2023-05-07T00:36:29;8.80;60.10
28247;DHT22;66191;53.178;22.058;2023-05-07T00:39:00;8.80;60.40
28247;DHT22;66191;53.178;22.058;2023-05-07T00:41:31;8.70;60.30
28247;DHT22;66191;53.178;22.058;2023-05-07T00:44:02;8.70;60.50
28247;DHT22;66191;53.178;22.058;2023-05-07T00:46:36;8.70;60.60
28247;DHT22;66191;53.178;22.058;2023-05-07T00:49:07;8.70;60.70
28247;DHT22;66191;53.178;22.058;2023-05-07T00:51:39;8.70;60.90
28247;DHT22;66191;53.178;22.058;2023-05-07T00:54:10;8.70;60.80
28247;DHT22;66191;53.178;22.058;2023-05-07T00:56:41;8.70;61.20
28247;DHT22;66191;53.178;22.058;2023-05-07T00:59:12;8.60;61.40
28247;DHT22;66191;53.178;22.058;2023-05-07T01:01:46;8.60;61.60
28247;DHT22;66191;53.178;22.058;2023-05-07T01:04:17;8.60;61.70
28247;DHT22;66191;53.178;22.058;2023-05-07T01:06:49;8.50;61.70
28247;DHT22;66191;53.178;22.058;2023-05-07T01:09:20;8.50;61.80
28247;DHT22;66191;53.178;22.058;2023-05-07T01:11:52;8.40;62.10
28247;DHT22;66191;53.178;22.058;2023-05-07T01:14:25;8.40;62.20
28247;DHT22;66191;53.178;22.058;2023-05-07T01:17:00;8.40;62.50
28247;DHT22;66191;53.178;22.058;2023-05-07T01:19:31;8.40;62.70
28247;DHT22;66191;53.178;22.058;2023-05-07T01:22:02;8.30;62.80
28247;DHT22;66191;53.178;22.058;2023-05-07T01:24:45;8.30;62.90
28247;DHT22;66191;53.178;22.058;2023-05-07T01:27:17;8.30;63.10
28247;DHT22;66191;53.178;22.058;2023-05-07T01:29:51;8.20;63.10
28247;DHT22;66191;53.178;22.058;2023-05-07T01:32:25;8.20;63.40
28247;DHT22;66191;53.178;22.058;2023-05-07T01:34:58;8.20;63.70
28247;DHT22;66191;53.178;22.058;2023-05-07T01:37:29;8.10;63.90
28247;DHT22;66191;53.178;22.058;2023-05-07T01:40:03;8.10;64.10
28247;DHT22;66191;53.178;22.058;2023-05-07T01:42:37;8.10;64.40
28247;DHT22;66191;53.178;22.058;2023-05-07T01:45:10;8.00;64.40
28247;DHT22;66191;53.178;22.058;2023-05-07T01:47:41;8.00;64.70
28247;DHT22;66191;53.178;22.058;2023-05-07T01:50:13;8.00;65.00
28247;DHT22;66191;53.178;22.058;2023-05-07T01:52:47;7.90;65.20
28247;DHT22;66191;53.178;22.058;2023-05-07T01:55:20;7.90;65.30
28247;DHT22;66191;53.178;22.058;2023-05-07T01:57:51;7.90;65.50
28247;DHT22;66191;53.178;22.058;2023-05-07T02:00:23;7.90;65.30
28247;DHT22;66191;53.178;22.058;2023-05-07T02:02:54;7.90;65.40
28247;DHT22;66191;53.178;22.058;2023-05-07T02:05:52;7.80;65.50
28247;DHT22;66191;53.178;22.058;2023-05-07T02:08:35;7.80;65.40
28247;DHT22;66191;53.178;22.058;2023-05-07T02:11:10;7.80;65.60
28247;DHT22;66191;53.178;22.058;2023-05-07T02:13:42;7.70;65.80
28247;DHT22;66191;53.178;22.058;2023-05-07T02:16:13;7.70;65.90
28247;DHT22;66191;53.178;22.058;2023-05-07T02:18:46;7.70;66.20
28247;DHT22;66191;53.178;22.058;2023-05-07T02:21:17;7.60;66.30
28247;DHT22;66191;53.178;22.058;2023-05-07T02:23:48;7.60;66.50
28247;DHT22;66191;53.178;22.058;2023-05-07T02:26:22;7.60;66.50
28247;DHT22;66191;53.178;22.058;2023-05-07T02:28:54;7.60;66.60
28247;DHT22;66191;53.178;22.058;2023-05-07T02:31:25;7.60;66.60
28247;DHT22;66191;53.178;22.058;2023-05-07T02:33:57;7.50;66.70
28247;DHT22;66191;53.178;22.058;2023-05-07T02:36:28;7.50;67.00
28247;DHT22;66191;53.178;22.058;2023-05-07T02:39:10;7.50;67.00
28247;DHT22;66191;53.178;22.058;2023-05-07T02:41:44;7.40;67.10
28247;DHT22;66191;53.178;22.058;2023-05-07T02:44:21;7.40;67.40
28247;DHT22;66191;53.178;22.058;2023-05-07T02:46:55;7.30;67.90
28247;DHT22;66191;53.178;22.058;2023-05-07T02:49:28;7.30;67.90
28247;DHT22;66191;53.178;22.058;2023-05-07T02:51:59;7.20;68.20
28247;DHT22;66191;53.178;22.058;2023-05-07T02:54:31;7.20;68.60
28247;DHT22;66191;53.178;22.058;2023-05-07T02:57:04;7.10;69.10
28247;DHT22;66191;53.178;22.058;2023-05-07T02:59:35;7.00;69.20
28247;DHT22;66191;53.178;22.058;2023-05-07T03:02:07;7.00;69.60
28247;DHT22;66191;53.178;22.058;2023-05-07T03:04:39;7.00;69.80
28247;DHT22;66191;53.178;22.058;2023-05-07T03:07:10;6.90;69.80
28247;DHT22;66191;53.178;22.058;2023-05-07T03:09:41;6.90;69.90
28247;DHT22;66191;53.178;22.058;2023-05-07T03:12:15;6.90;69.90
28247;DHT22;66191;53.178;22.058;2023-05-07T03:14:46;6.90;70.10
28247;DHT22;66191;53.178;22.058;2023-05-07T03:17:17;6.90;70.60
28247;DHT22;66191;53.178;22.058;2023-05-07T03:19:49;6.80;70.60
28247;DHT22;66191;53.178;22.058;2023-05-07T03:22:20;6.80;70.80
28247;DHT22;66191;53.178;22.058;2023-05-07T03:24:51;6.80;71.00
28247;DHT22;66191;53.178;22.058;2023-05-07T03:27:24;6.80;71.20
28247;DHT22;66191;53.178;22.058;2023-05-07T03:29:56;6.80;71.30
28247;DHT22;66191;53.178;22.058;2023-05-07T03:32:27;6.80;71.20
28247;DHT22;66191;53.178;22.058;2023-05-07T03:34:59;6.90;71.10
28247;DHT22;66191;53.178;22.058;2023-05-07T03:37:31;7.00;71.00
28247;DHT22;66191;53.178;22.058;2023-05-07T03:40:07;7.10;70.90
28247;DHT22;66191;53.178;22.058;2023-05-07T03:42:50;7.20;70.40
28247;DHT22;66191;53.178;22.058;2023-05-07T03:45:24;7.30;70.30
28247;DHT22;66191;53.178;22.058;2023-05-07T03:48:09;7.40;70.20
28247;DHT22;66191;53.178;22.058;2023-05-07T03:50:40;7.50;69.70
28247;DHT22;66191;53.178;22.058;2023-05-07T03:53:12;7.50;69.60
28247;DHT22;66191;53.178;22.058;2023-05-07T03:55:43;7.60;69.00
28247;DHT22;66191;53.178;22.058;2023-05-07T03:58:17;7.70;69.00
28247;DHT22;66191;53.178;22.058;2023-05-07T04:00:48;7.70;68.70
28247;DHT22;66191;53.178;22.058;2023-05-07T04:03:26;7.80;68.50
28247;DHT22;66191;53.178;22.058;2023-05-07T04:05:59;7.90;68.40
28247;DHT22;66191;53.178;22.058;2023-05-07T04:08:33;8.00;68.20
28247;DHT22;66191;53.178;22.058;2023-05-07T04:11:06;8.00;68.10
28247;DHT22;66191;53.178;22.058;2023-05-07T04:13:40;8.10;67.60
28247;DHT22;66191;53.178;22.058;2023-05-07T04:16:11;8.20;67.70
28247;DHT22;66191;53.178;22.058;2023-05-07T04:18:42;8.30;67.50
28247;DHT22;66191;53.178;22.058;2023-05-07T04:21:14;8.40;67.20
28247;DHT22;66191;53.178;22.058;2023-05-07T04:23:47;8.50;66.80
28247;DHT22;66191;53.178;22.058;2023-05-07T04:26:19;8.50;65.90
28247;DHT22;66191;53.178;22.058;2023-05-07T04:28:54;8.50;66.10
28247;DHT22;66191;53.178;22.058;2023-05-07T04:31:32;8.60;65.80
28247;DHT22;66191;53.178;22.058;2023-05-07T04:34:03;8.80;65.50
28247;DHT22;66191;53.178;22.058;2023-05-07T04:36:34;8.80;65.30
28247;DHT22;66191;53.178;22.058;2023-05-07T04:39:10;8.90;64.80
28247;DHT22;66191;53.178;22.058;2023-05-07T04:41:44;9.00;64.40
28247;DHT22;66191;53.178;22.058;2023-05-07T04:44:17;9.00;64.60
28247;DHT22;66191;53.178;22.058;2023-05-07T04:46:49;9.10;64.70
28247;DHT22;66191;53.178;22.058;2023-05-07T04:49:20;9.10;63.70
28247;DHT22;66191;53.178;22.058;2023-05-07T04:51:53;9.10;63.30
28247;DHT22;66191;53.178;22.058;2023-05-07T04:54:24;9.20;63.40
28247;DHT22;66191;53.178;22.058;2023-05-07T04:56:56;9.20;63.60
28247;DHT22;66191;53.178;22.058;2023-05-07T04:59:29;9.30;63.30
28247;DHT22;66191;53.178;22.058;2023-05-07T05:02:01;9.30;63.00
28247;DHT22;66191;53.178;22.058;2023-05-07T05:04:32;9.40;63.60
28247;DHT22;66191;53.178;22.058;2023-05-07T05:07:04;9.50;63.50
28247;DHT22;66191;53.178;22.058;2023-05-07T05:09:36;9.70;62.40
28247;DHT22;66191;53.178;22.058;2023-05-07T05:12:07;9.70;61.30
28247;DHT22;66191;53.178;22.058;2023-05-07T05:14:41;9.70;62.40
28247;DHT22;66191;53.178;22.058;2023-05-07T05:17:13;9.70;61.00
28247;DHT22;66191;53.178;22.058;2023-05-07T05:19:44;9.70;61.60
28247;DHT22;66191;53.178;22.058;2023-05-07T05:22:16;9.70;62.10
28247;DHT22;66191;53.178;22.058;2023-05-07T05:24:48;9.80;61.90
28247;DHT22;66191;53.178;22.058;2023-05-07T05:27:22;9.80;61.50
28247;DHT22;66191;53.178;22.058;2023-05-07T05:29:56;9.80;61.40
28247;DHT22;66191;53.178;22.058;2023-05-07T05:32:28;9.80;61.20
28247;DHT22;66191;53.178;22.058;2023-05-07T05:35:01;9.90;61.30
28247;DHT22;66191;53.178;22.058;2023-05-07T05:37:32;9.90;61.30
28247;DHT22;66191;53.178;22.058;2023-05-07T05:40:06;9.90;60.80
28247;DHT22;66191;53.178;22.058;2023-05-07T05:42:37;9.90;61.50
28247;DHT22;66191;53.178;22.058;2023-05-07T05:45:15;9.90;61.20
28247;DHT22;66191;53.178;22.058;2023-05-07T05:47:47;9.90;61.10
28247;DHT22;66191;53.178;22.058;2023-05-07T05:50:18;9.80;62.10
28247;DHT22;66191;53.178;22.058;2023-05-07T05:52:49;9.90;61.60
28247;DHT22;66191;53.178;22.058;2023-05-07T05:55:20;10.00;61.20
28247;DHT22;66191;53.178;22.058;2023-05-07T05:57:52;10.00;60.90
28247;DHT22;66191;53.178;22.058;2023-05-07T06:00:27;10.00;60.80
28247;DHT22;66191;53.178;22.058;2023-05-07T06:03:03;10.00;61.40
28247;DHT22;66191;53.178;22.058;2023-05-07T06:05:35;10.10;61.00
28247;DHT22;66191;53.178;22.058;2023-05-07T06:08:06;10.20;61.40
28247;DHT22;66191;53.178;22.058;2023-05-07T06:10:37;10.30;61.20
28247;DHT22;66191;53.178;22.058;2023-05-07T06:13:09;10.30;60.50
28247;DHT22;66191;53.178;22.058;2023-05-07T06:15:44;10.30;60.80
28247;DHT22;66191;53.178;22.058;2023-05-07T06:18:15;10.20;61.10
28247;DHT22;66191;53.178;22.058;2023-05-07T06:20:47;10.30;60.90
28247;DHT22;66191;53.178;22.058;2023-05-07T06:23:24;10.30;61.20
28247;DHT22;66191;53.178;22.058;2023-05-07T06:25:55;10.40;61.50
28247;DHT22;66191;53.178;22.058;2023-05-07T06:28:32;10.40;61.40
28247;DHT22;66191;53.178;22.058;2023-05-07T06:31:14;10.40;61.20
28247;DHT22;66191;53.178;22.058;2023-05-07T06:33:59;10.40;61.30
28247;DHT22;66191;53.178;22.058;2023-05-07T06:36:35;10.40;61.30
28247;DHT22;66191;53.178;22.058;2023-05-07T06:39:33;10.40;62.20
28247;DHT22;66191;53.178;22.058;2023-05-07T06:42:04;10.50;62.20
28247;DHT22;66191;53.178;22.058;2023-05-07T06:44:42;10.40;61.80
28247;DHT22;66191;53.178;22.058;2023-05-07T06:47:18;10.40;62.40
28247;DHT22;66191;53.178;22.058;2023-05-07T06:49:52;10.50;62.40
28247;DHT22;66191;53.178;22.058;2023-05-07T06:52:26;10.50;63.10
28247;DHT22;66191;53.178;22.058;2023-05-07T06:54:58;10.50;62.70
28247;DHT22;66191;53.178;22.058;2023-05-07T06:57:29;10.50;63.20
28247;DHT22;66191;53.178;22.058;2023-05-07T07:00:01;10.50;63.70
28247;DHT22;66191;53.178;22.058;2023-05-07T07:02:44;10.60;62.90
28247;DHT22;66191;53.178;22.058;2023-05-07T07:05:18;10.60;63.50
28247;DHT22;66191;53.178;22.058;2023-05-07T07:07:50;10.60;63.10
28247;DHT22;66191;53.178;22.058;2023-05-07T07:10:22;10.60;62.90
28247;DHT22;66191;53.178;22.058;2023-05-07T07:12:54;10.60;62.60
28247;DHT22;66191;53.178;22.058;2023-05-07T07:15:27;10.60;62.90
28247;DHT22;66191;53.178;22.058;2023-05-07T07:18:01;10.60;63.50
28247;DHT22;66191;53.178;22.058;2023-05-07T07:20:32;10.70;63.60
28247;DHT22;66191;53.178;22.058;2023-05-07T07:23:04;10.70;63.60
28247;DHT22;66191;53.178;22.058;2023-05-07T07:25:35;10.80;62.90
28247;DHT22;66191;53.178;22.058;2023-05-07T07:28:07;10.70;62.60
28247;DHT22;66191;53.178;22.058;2023-05-07T07:30:39;10.70;63.00
28247;DHT22;66191;53.178;22.058;2023-05-07T07:33:14;10.70;63.10
28247;DHT22;66191;53.178;22.058;2023-05-07T07:35:45;10.80;62.40
28247;DHT22;66191;53.178;22.058;2023-05-07T07:38:16;10.80;62.60
28247;DHT22;66191;53.178;22.058;2023-05-07T07:40:48;10.80;62.20
28247;DHT22;66191;53.178;22.058;2023-05-07T07:43:20;10.80;60.90
28247;DHT22;66191;53.178;22.058;2023-05-07T07:45:52;10.80;61.30
28247;DHT22;66191;53.178;22.058;2023-05-07T07:48:26;10.80;61.00
28247;DHT22;66191;53.178;22.058;2023-05-07T07:50:59;10.80;61.50
28247;DHT22;66191;53.178;22.058;2023-05-07T07:53:30;10.80;61.80
28247;DHT22;66191;53.178;22.058;2023-05-07T07:56:02;10.90;61.50
28247;DHT22;66191;53.178;22.058;2023-05-07T07:58:34;10.90;61.50
28247;DHT22;66191;53.178;22.058;2023-05-07T08:01:08;10.90;61.60
28247;DHT22;66191;53.178;22.058;2023-05-07T08:03:45;10.90;62.60
28247;DHT22;66191;53.178;22.058;2023-05-07T08:06:17;11.00;60.70
28247;DHT22;66191;53.178;22.058;2023-05-07T08:08:48;11.00;61.20
28247;DHT22;66191;53.178;22.058;2023-05-07T08:11:20;11.00;60.40
28247;DHT22;66191;53.178;22.058;2023-05-07T08:13:52;11.00;60.90
28247;DHT22;66191;53.178;22.058;2023-05-07T08:16:24;11.10;60.60
28247;DHT22;66191;53.178;22.058;2023-05-07T08:19:03;11.10;60.20
28247;DHT22;66191;53.178;22.058;2023-05-07T08:21:38;11.10;60.80
28247;DHT22;66191;53.178;22.058;2023-05-07T08:24:11;11.10;59.90
28247;DHT22;66191;53.178;22.058;2023-05-07T08:26:43;11.20;60.10
28247;DHT22;66191;53.178;22.058;2023-05-07T08:29:14;11.20;60.10
28247;DHT22;66191;53.178;22.058;2023-05-07T08:31:47;11.30;59.20
28247;DHT22;66191;53.178;22.058;2023-05-07T08:34:21;11.30;58.50
28247;DHT22;66191;53.178;22.058;2023-05-07T08:36:54;11.30;58.90
28247;DHT22;66191;53.178;22.058;2023-05-07T08:39:25;11.40;57.90
28247;DHT22;66191;53.178;22.058;2023-05-07T08:41:56;11.40;58.30
28247;DHT22;66191;53.178;22.058;2023-05-07T08:44:33;11.50;58.80
28247;DHT22;66191;53.178;22.058;2023-05-07T08:47:06;11.60;57.70
28247;DHT22;66191;53.178;22.058;2023-05-07T08:49:41;11.70;57.70
28247;DHT22;66191;53.178;22.058;2023-05-07T08:52:14;11.80;58.20
28247;DHT22;66191;53.178;22.058;2023-05-07T08:54:48;11.80;58.10
28247;DHT22;66191;53.178;22.058;2023-05-07T08:57:19;11.90;57.70
28247;DHT22;66191;53.178;22.058;2023-05-07T08:59:52;11.90;57.60
28247;DHT22;66191;53.178;22.058;2023-05-07T09:02:25;11.90;56.90
28247;DHT22;66191;53.178;22.058;2023-05-07T09:04:59;11.90;57.20
28247;DHT22;66191;53.178;22.058;2023-05-07T09:07:30;12.00;57.10
28247;DHT22;66191;53.178;22.058;2023-05-07T09:10:03;12.00;57.50
28247;DHT22;66191;53.178;22.058;2023-05-07T09:12:37;12.10;56.60
28247;DHT22;66191;53.178;22.058;2023-05-07T09:15:11;12.00;55.20
28247;DHT22;66191;53.178;22.058;2023-05-07T09:17:43;12.10;55.30
28247;DHT22;66191;53.178;22.058;2023-05-07T09:20:17;12.20;55.10
28247;DHT22;66191;53.178;22.058;2023-05-07T09:22:49;12.20;55.20
28247;DHT22;66191;53.178;22.058;2023-05-07T09:25:27;12.30;55.90
28247;DHT22;66191;53.178;22.058;2023-05-07T09:28:02;12.50;53.00
28247;DHT22;66191;53.178;22.058;2023-05-07T09:30:35;12.40;53.90
28247;DHT22;66191;53.178;22.058;2023-05-07T09:33:10;12.40;54.40
28247;DHT22;66191;53.178;22.058;2023-05-07T09:35:53;12.50;55.10
28247;DHT22;66191;53.178;22.058;2023-05-07T09:38:25;12.50;54.30
28247;DHT22;66191;53.178;22.058;2023-05-07T09:41:02;12.50;53.80
28247;DHT22;66191;53.178;22.058;2023-05-07T09:43:39;12.50;54.20
28247;DHT22;66191;53.178;22.058;2023-05-07T09:46:13;12.60;53.30
28247;DHT22;66191;53.178;22.058;2023-05-07T09:48:50;12.60;52.60
28247;DHT22;66191;53.178;22.058;2023-05-07T09:51:28;12.60;52.90
28247;DHT22;66191;53.178;22.058;2023-05-07T09:54:00;12.70;54.00
28247;DHT22;66191;53.178;22.058;2023-05-07T09:56:35;12.80;53.70
28247;DHT22;66191;53.178;22.058;2023-05-07T09:59:07;12.80;52.10
28247;DHT22;66191;53.178;22.058;2023-05-07T10:01:39;12.80;51.60
28247;DHT22;66191;53.178;22.058;2023-05-07T10:04:12;12.80;51.50
28247;DHT22;66191;53.178;22.058;2023-05-07T10:06:47;12.80;51.40
28247;DHT22;66191;53.178;22.058;2023-05-07T10:09:19;12.90;51.70
28247;DHT22;66191;53.178;22.058;2023-05-07T10:11:50;12.90;52.50
28247;DHT22;66191;53.178;22.058;2023-05-07T10:14:22;12.80;52.00
28247;DHT22;66191;53.178;22.058;2023-05-07T10:16:52;12.80;52.80
28247;DHT22;66191;53.178;22.058;2023-05-07T10:19:24;12.90;52.80
28247;DHT22;66191;53.178;22.058;2023-05-07T10:22:01;12.90;50.80
28247;DHT22;66191;53.178;22.058;2023-05-07T10:24:39;12.80;50.40
28247;DHT22;66191;53.178;22.058;2023-05-07T10:27:14;12.80;51.00
28247;DHT22;66191;53.178;22.058;2023-05-07T10:29:53;12.90;50.80
28247;DHT22;66191;53.178;22.058;2023-05-07T10:32:29;12.90;50.40
28247;DHT22;66191;53.178;22.058;2023-05-07T10:35:02;12.90;50.30
28247;DHT22;66191;53.178;22.058;2023-05-07T10:37:36;12.90;50.30
28247;DHT22;66191;53.178;22.058;2023-05-07T10:40:08;12.90;50.80
28247;DHT22;66191;53.178;22.058;2023-05-07T10:42:52;12.90;51.60
28247;DHT22;66191;53.178;22.058;2023-05-07T10:45:24;12.90;51.00
28247;DHT22;66191;53.178;22.058;2023-05-07T10:48:07;12.90;50.30
28247;DHT22;66191;53.178;22.058;2023-05-07T10:53:48;13.00;50.60
28247;DHT22;66191;53.178;22.058;2023-05-07T10:56:25;13.10;49.80
28247;DHT22;66191;53.178;22.058;2023-05-07T10:59:31;13.10;50.20
28247;DHT22;66191;53.178;22.058;2023-05-07T11:02:16;13.20;49.50
28247;DHT22;66191;53.178;22.058;2023-05-07T11:07:43;13.20;50.00
28247;DHT22;66191;53.178;22.058;2023-05-07T11:16:19;13.40;48.80
28247;DHT22;66191;53.178;22.058;2023-05-07T11:18:58;13.40;49.50
28247;DHT22;66191;53.178;22.058;2023-05-07T11:21:38;13.50;49.80
28247;DHT22;66191;53.178;22.058;2023-05-07T11:24:38;13.50;48.60
28247;DHT22;66191;53.178;22.058;2023-05-07T11:27:11;13.60;49.20
28247;DHT22;66191;53.178;22.058;2023-05-07T11:29:44;13.60;49.60
28247;DHT22;66191;53.178;22.058;2023-05-07T11:32:24;13.70;48.80
28247;DHT22;66191;53.178;22.058;2023-05-07T11:34:58;13.60;47.80
28247;DHT22;66191;53.178;22.058;2023-05-07T11:37:30;13.60;47.80
28247;DHT22;66191;53.178;22.058;2023-05-07T11:40:04;13.60;48.00
28247;DHT22;66191;53.178;22.058;2023-05-07T11:42:35;13.60;48.00
28247;DHT22;66191;53.178;22.058;2023-05-07T11:45:08;13.70;48.90
28247;DHT22;66191;53.178;22.058;2023-05-07T11:47:49;13.80;48.40
28247;DHT22;66191;53.178;22.058;2023-05-07T11:50:20;13.70;48.30
28247;DHT22;66191;53.178;22.058;2023-05-07T11:52:51;13.80;47.90
28247;DHT22;66191;53.178;22.058;2023-05-07T11:55:24;13.90;47.90
28247;DHT22;66191;53.178;22.058;2023-05-07T11:57:54;14.00;47.60
28247;DHT22;66191;53.178;22.058;2023-05-07T12:00:25;14.00;47.60
28247;DHT22;66191;53.178;22.058;2023-05-07T12:02:59;14.20;47.80
28247;DHT22;66191;53.178;22.058;2023-05-07T12:05:33;14.30;47.00
28247;DHT22;66191;53.178;22.058;2023-05-07T12:08:04;14.30;46.20
28247;DHT22;66191;53.178;22.058;2023-05-07T12:10:36;14.30;46.60
28247;DHT22;66191;53.178;22.058;2023-05-07T12:13:14;14.30;46.40
28247;DHT22;66191;53.178;22.058;2023-05-07T12:15:46;14.20;47.10
28247;DHT22;66191;53.178;22.058;2023-05-07T12:18:23;14.30;46.90
28247;DHT22;66191;53.178;22.058;2023-05-07T12:20:54;14.30;47.90
28247;DHT22;66191;53.178;22.058;2023-05-07T12:23:25;14.40;47.20
28247;DHT22;66191;53.178;22.058;2023-05-07T12:25:56;14.40;46.40
28247;DHT22;66191;53.178;22.058;2023-05-07T12:28:27;14.40;46.70
28247;DHT22;66191;53.178;22.058;2023-05-07T12:31:00;14.40;47.50
28247;DHT22;66191;53.178;22.058;2023-05-07T12:33:34;14.40;47.20
28247;DHT22;66191;53.178;22.058;2023-05-07T12:36:06;14.30;46.60
28247;DHT22;66191;53.178;22.058;2023-05-07T12:38:38;14.30;46.10
28247;DHT22;66191;53.178;22.058;2023-05-07T12:41:09;14.20;45.60
28247;DHT22;66191;53.178;22.058;2023-05-07T12:43:41;14.20;46.20
28247;DHT22;66191;53.178;22.058;2023-05-07T12:46:14;14.20;46.40
28247;DHT22;66191;53.178;22.058;2023-05-07T12:48:48;14.20;46.70
28247;DHT22;66191;53.178;22.058;2023-05-07T12:51:20;14.30;47.50
28247;DHT22;66191;53.178;22.058;2023-05-07T12:53:50;14.40;47.80
28247;DHT22;66191;53.178;22.058;2023-05-07T12:56:30;14.40;48.30
28247;DHT22;66191;53.178;22.058;2023-05-07T12:59:01;14.30;47.30
28247;DHT22;66191;53.178;22.058;2023-05-07T13:01:33;14.20;47.40
28247;DHT22;66191;53.178;22.058;2023-05-07T13:04:07;14.20;47.70
28247;DHT22;66191;53.178;22.058;2023-05-07T13:06:39;14.20;47.50
28247;DHT22;66191;53.178;22.058;2023-05-07T13:09:11;14.20;46.90
28247;DHT22;66191;53.178;22.058;2023-05-07T13:11:46;14.10;47.10
28247;DHT22;66191;53.178;22.058;2023-05-07T13:14:17;14.20;46.80
28247;DHT22;66191;53.178;22.058;2023-05-07T13:16:48;14.10;46.30
28247;DHT22;66191;53.178;22.058;2023-05-07T13:19:22;14.10;47.00
28247;DHT22;66191;53.178;22.058;2023-05-07T13:21:53;14.20;47.40
28247;DHT22;66191;53.178;22.058;2023-05-07T13:24:23;14.30;47.30
28247;DHT22;66191;53.178;22.058;2023-05-07T13:26:56;14.30;46.70
28247;DHT22;66191;53.178;22.058;2023-05-07T13:29:26;14.20;46.90
28247;DHT22;66191;53.178;22.058;2023-05-07T13:31:59;14.10;47.10
28247;DHT22;66191;53.178;22.058;2023-05-07T13:34:33;14.10;46.80
28247;DHT22;66191;53.178;22.058;2023-05-07T13:37:04;14.10;47.80
28247;DHT22;66191;53.178;22.058;2023-05-07T13:39:37;14.20;48.00
28247;DHT22;66191;53.178;22.058;2023-05-07T13:42:08;14.20;47.20
28247;DHT22;66191;53.178;22.058;2023-05-07T13:44:39;14.30;46.80
28247;DHT22;66191;53.178;22.058;2023-05-07T13:47:11;14.20;46.20
28247;DHT22;66191;53.178;22.058;2023-05-07T13:49:45;14.10;47.40
28247;DHT22;66191;53.178;22.058;2023-05-07T13:52:17;14.10;46.70
28247;DHT22;66191;53.178;22.058;2023-05-07T13:54:48;14.10;47.10
28247;DHT22;66191;53.178;22.058;2023-05-07T13:57:20;14.10;47.20
28247;DHT22;66191;53.178;22.058;2023-05-07T13:59:51;14.20;47.30
28247;DHT22;66191;53.178;22.058;2023-05-07T14:02:24;14.10;47.20
28247;DHT22;66191;53.178;22.058;2023-05-07T14:04:57;14.10;46.70
28247;DHT22;66191;53.178;22.058;2023-05-07T14:07:28;14.10;46.70
28247;DHT22;66191;53.178;22.058;2023-05-07T14:09:59;14.20;46.40
28247;DHT22;66191;53.178;22.058;2023-05-07T14:12:31;14.10;46.30
28247;DHT22;66191;53.178;22.058;2023-05-07T14:15:02;14.10;45.90
28247;DHT22;66191;53.178;22.058;2023-05-07T14:17:33;14.00;46.10
28247;DHT22;66191;53.178;22.058;2023-05-07T14:20:07;14.00;46.10
28247;DHT22;66191;53.178;22.058;2023-05-07T14:22:39;14.00;46.00
28247;DHT22;66191;53.178;22.058;2023-05-07T14:25:10;14.00;46.30
28247;DHT22;66191;53.178;22.058;2023-05-07T14:27:48;14.00;45.80
28247;DHT22;66191;53.178;22.058;2023-05-07T14:30:19;14.00;45.90
28247;DHT22;66191;53.178;22.058;2023-05-07T14:32:52;14.00;45.80
28247;DHT22;66191;53.178;22.058;2023-05-07T14:35:25;14.10;46.30
28247;DHT22;66191;53.178;22.058;2023-05-07T14:37:58;14.10;45.90
28247;DHT22;66191;53.178;22.058;2023-05-07T14:40:29;14.10;45.70
28247;DHT22;66191;53.178;22.058;2023-05-07T14:43:01;14.10;46.20
28247;DHT22;66191;53.178;22.058;2023-05-07T14:45:32;14.10;46.40
28247;DHT22;66191;53.178;22.058;2023-05-07T14:48:03;14.10;45.90
28247;DHT22;66191;53.178;22.058;2023-05-07T14:50:39;14.10;46.20
28247;DHT22;66191;53.178;22.058;2023-05-07T14:53:10;14.10;45.40
28247;DHT22;66191;53.178;22.058;2023-05-07T14:55:41;14.10;44.80
28247;DHT22;66191;53.178;22.058;2023-05-07T14:58:12;14.10;44.90
28247;DHT22;66191;53.178;22.058;2023-05-07T15:00:43;14.10;45.20
28247;DHT22;66191;53.178;22.058;2023-05-07T15:03:14;14.10;45.20
28247;DHT22;66191;53.178;22.058;2023-05-07T15:05:48;14.10;44.80
28247;DHT22;66191;53.178;22.058;2023-05-07T15:08:20;14.10;44.10
28247;DHT22;66191;53.178;22.058;2023-05-07T15:10:51;14.10;44.20
28247;DHT22;66191;53.178;22.058;2023-05-07T15:13:24;14.10;44.50
28247;DHT22;66191;53.178;22.058;2023-05-07T15:15:54;14.10;44.10
28247;DHT22;66191;53.178;22.058;2023-05-07T15:18:26;14.10;44.80
28247;DHT22;66191;53.178;22.058;2023-05-07T15:21:00;14.10;44.40
28247;DHT22;66191;53.178;22.058;2023-05-07T15:23:33;14.10;44.60
28247;DHT22;66191;53.178;22.058;2023-05-07T15:26:04;14.10;44.70
28247;DHT22;66191;53.178;22.058;2023-05-07T15:28:36;14.10;44.70
28247;DHT22;66191;53.178;22.058;2023-05-07T15:31:11;14.10;44.60
28247;DHT22;66191;53.178;22.058;2023-05-07T15:33:43;14.10;45.00
28247;DHT22;66191;53.178;22.058;2023-05-07T15:36:17;14.10;45.00
28247;DHT22;66191;53.178;22.058;2023-05-07T15:38:49;14.10;45.00
28247;DHT22;66191;53.178;22.058;2023-05-07T15:41:20;14.10;44.80
28247;DHT22;66191;53.178;22.058;2023-05-07T15:43:52;14.10;45.00
28247;DHT22;66191;53.178;22.058;2023-05-07T15:46:24;14.10;45.20
28247;DHT22;66191;53.178;22.058;2023-05-07T15:48:56;14.10;44.60
28247;DHT22;66191;53.178;22.058;2023-05-07T15:51:29;14.10;45.00
28247;DHT22;66191;53.178;22.058;2023-05-07T15:54:00;14.10;44.90
28247;DHT22;66191;53.178;22.058;2023-05-07T15:56:31;14.10;44.20
28247;DHT22;66191;53.178;22.058;2023-05-07T15:59:02;14.10;44.30
28247;DHT22;66191;53.178;22.058;2023-05-07T16:01:34;14.10;44.40
28247;DHT22;66191;53.178;22.058;2023-05-07T16:04:06;14.10;44.40
28247;DHT22;66191;53.178;22.058;2023-05-07T16:06:40;14.10;44.10
28247;DHT22;66191;53.178;22.058;2023-05-07T16:09:14;14.10;44.40
28247;DHT22;66191;53.178;22.058;2023-05-07T16:11:45;14.00;44.10